sensor_id;sensor_type;location;lat;lon;timestamp;temperature;humidity
33105;DHT22;19476;51.448;6.674;2023-03-03T00:00:14;9.20;46.80
33105;DHT22;19476;51.448;6.674;2023-03-03T00:02:40;9.20;46.20
33105;DHT22;19476;51.448;6.674;2023-03-03T00:05:06;9.20;46.10
33105;DHT22;19476;51.448;6.674;2023-03-03T00:07:32;9.20;46.30
33105;DHT22;19476;51.448;6.674;2023-03-03T00:09:58;9.20;46.30
33105;DHT22;19476;51.448;6.674;2023-03-03T00:12:29;9.20;46.40
33105;DHT22;19476;51.448;6.674;2023-03-03T00:14:55;9.20;46.90
33105;DHT22;19476;51.448;6.674;2023-03-03T00:17:26;9.20;46.50
33105;DHT22;19476;51.448;6.674;2023-03-03T00:19:52;9.20;46.80
33105;DHT22;19476;51.448;6.674;2023-03-03T00:22:28;9.20;46.40
33105;DHT22;19476;51.448;6.674;2023-03-03T00:24:59;9.20;47.10
33105;DHT22;19476;51.448;6.674;2023-03-03T00:29:56;9.30;47.00
33105;DHT22;19476;51.448;6.674;2023-03-03T00:32:30;9.20;46.70
33105;DHT22;19476;51.448;6.674;2023-03-03T00:37:56;9.20;47.20
33105;DHT22;19476;51.448;6.674;2023-03-03T00:40:32;9.30;46.80
33105;DHT22;19476;51.448;6.674;2023-03-03T00:43:00;9.30;47.00
33105;DHT22;19476;51.448;6.674;2023-03-03T00:47:53;9.40;46.50
33105;DHT22;19476;51.448;6.674;2023-03-03T00:50:29;9.40;46.50
33105;DHT22;19476;51.448;6.674;2023-03-03T00:53:06;9.40;46.80
33105;DHT22;19476;51.448;6.674;2023-03-03T00:55:33;9.50;47.10
33105;DHT22;19476;51.448;6.674;2023-03-03T00:57:59;9.50;46.50
33105;DHT22;19476;51.448;6.674;2023-03-03T01:00:25;9.50;46.30
33105;DHT22;19476;51.448;6.674;2023-03-03T01:02:50;9.60;46.20
33105;DHT22;19476;51.448;6.674;2023-03-03T01:05:18;9.60;46.20
33105;DHT22;19476;51.448;6.674;2023-03-03T01:07:44;9.70;46.30
33105;DHT22;19476;51.448;6.674;2023-03-03T01:10:10;9.70;46.10
33105;DHT22;19476;51.448;6.674;2023-03-03T01:12:36;9.70;46.00
33105;DHT22;19476;51.448;6.674;2023-03-03T01:15:05;9.70;46.00
33105;DHT22;19476;51.448;6.674;2023-03-03T01:17:31;9.70;46.20
33105;DHT22;19476;51.448;6.674;2023-03-03T01:19:59;9.70;46.00
33105;DHT22;19476;51.448;6.674;2023-03-03T01:22:24;9.80;46.10
33105;DHT22;19476;51.448;6.674;2023-03-03T01:24:50;9.80;46.10
33105;DHT22;19476;51.448;6.674;2023-03-03T01:27:16;9.80;46.10
33105;DHT22;19476;51.448;6.674;2023-03-03T01:29:42;9.90;46.10
33105;DHT22;19476;51.448;6.674;2023-03-03T01:32:07;9.90;46.00
33105;DHT22;19476;51.448;6.674;2023-03-03T01:34:33;9.90;45.90
33105;DHT22;19476;51.448;6.674;2023-03-03T01:36:59;9.90;45.90
33105;DHT22;19476;51.448;6.674;2023-03-03T01:39:25;9.90;45.80
33105;DHT22;19476;51.448;6.674;2023-03-03T01:41:51;9.90;45.80
33105;DHT22;19476;51.448;6.674;2023-03-03T01:44:17;9.90;45.70
33105;DHT22;19476;51.448;6.674;2023-03-03T01:49:49;9.90;46.30
33105;DHT22;19476;51.448;6.674;2023-03-03T01:54:54;9.80;46.00
33105;DHT22;19476;51.448;6.674;2023-03-03T01:57:27;9.80;45.90
33105;DHT22;19476;51.448;6.674;2023-03-03T01:59:54;9.70;46.00
33105;DHT22;19476;51.448;6.674;2023-03-03T02:02:21;9.70;45.70
33105;DHT22;19476;51.448;6.674;2023-03-03T02:04:49;9.60;45.80
33105;DHT22;19476;51.448;6.674;2023-03-03T02:07:15;9.60;45.80
33105;DHT22;19476;51.448;6.674;2023-03-03T02:12:12;9.50;45.90
33105;DHT22;19476;51.448;6.674;2023-03-03T02:14:39;9.50;46.20
33105;DHT22;19476;51.448;6.674;2023-03-03T02:17:05;9.40;46.00
33105;DHT22;19476;51.448;6.674;2023-03-03T02:19:59;9.40;46.00
33105;DHT22;19476;51.448;6.674;2023-03-03T02:22:27;9.40;46.50
33105;DHT22;19476;51.448;6.674;2023-03-03T02:24:59;9.40;46.40
33105;DHT22;19476;51.448;6.674;2023-03-03T02:27:27;9.50;46.50
33105;DHT22;19476;51.448;6.674;2023-03-03T02:29:54;9.40;46.30
33105;DHT22;19476;51.448;6.674;2023-03-03T02:32:20;9.40;46.20
33105;DHT22;19476;51.448;6.674;2023-03-03T02:34:48;9.40;46.20
33105;DHT22;19476;51.448;6.674;2023-03-03T02:37:14;9.40;46.40
33105;DHT22;19476;51.448;6.674;2023-03-03T02:39:40;9.40;46.30
33105;DHT22;19476;51.448;6.674;2023-03-03T02:42:12;9.50;46.40
33105;DHT22;19476;51.448;6.674;2023-03-03T02:44:39;9.50;46.60
33105;DHT22;19476;51.448;6.674;2023-03-03T02:47:05;9.50;46.30
33105;DHT22;19476;51.448;6.674;2023-03-03T02:49:32;9.50;46.40
33105;DHT22;19476;51.448;6.674;2023-03-03T02:51:59;9.50;46.50
33105;DHT22;19476;51.448;6.674;2023-03-03T02:54:27;9.50;46.50
33105;DHT22;19476;51.448;6.674;2023-03-03T02:56:54;9.60;47.10
33105;DHT22;19476;51.448;6.674;2023-03-03T02:59:20;9.60;46.40
33105;DHT22;19476;51.448;6.674;2023-03-03T03:01:46;9.60;46.40
33105;DHT22;19476;51.448;6.674;2023-03-03T03:04:17;9.60;46.40
33105;DHT22;19476;51.448;6.674;2023-03-03T03:06:44;9.60;46.60
33105;DHT22;19476;51.448;6.674;2023-03-03T03:09:11;9.70;46.30
33105;DHT22;19476;51.448;6.674;2023-03-03T03:11:37;9.70;46.30
33105;DHT22;19476;51.448;6.674;2023-03-03T03:14:04;9.70;46.20
33105;DHT22;19476;51.448;6.674;2023-03-03T03:16:30;9.80;46.20
33105;DHT22;19476;51.448;6.674;2023-03-03T03:18:58;9.70;46.00
33105;DHT22;19476;51.448;6.674;2023-03-03T03:21:24;9.70;46.00
33105;DHT22;19476;51.448;6.674;2023-03-03T03:23:50;9.80;45.90
33105;DHT22;19476;51.448;6.674;2023-03-03T03:26:15;9.80;45.90
33105;DHT22;19476;51.448;6.674;2023-03-03T03:28:41;9.80;45.90
33105;DHT22;19476;51.448;6.674;2023-03-03T03:31:08;9.80;45.90
33105;DHT22;19476;51.448;6.674;2023-03-03T03:33:34;9.80;45.90
33105;DHT22;19476;51.448;6.674;2023-03-03T03:36:01;9.80;46.50
33105;DHT22;19476;51.448;6.674;2023-03-03T03:38:27;9.80;45.90
33105;DHT22;19476;51.448;6.674;2023-03-03T03:40:54;9.80;45.90
33105;DHT22;19476;51.448;6.674;2023-03-03T03:43:20;9.80;45.90
33105;DHT22;19476;51.448;6.674;2023-03-03T03:45:46;9.80;45.90
33105;DHT22;19476;51.448;6.674;2023-03-03T03:48:11;9.80;45.80
33105;DHT22;19476;51.448;6.674;2023-03-03T03:50:37;9.80;45.80
33105;DHT22;19476;51.448;6.674;2023-03-03T03:53:04;9.80;45.80
33105;DHT22;19476;51.448;6.674;2023-03-03T03:55:31;9.80;45.90
33105;DHT22;19476;51.448;6.674;2023-03-03T03:57:57;9.80;45.90
33105;DHT22;19476;51.448;6.674;2023-03-03T04:00:23;9.80;45.90
33105;DHT22;19476;51.448;6.674;2023-03-03T04:02:49;9.80;45.80
33105;DHT22;19476;51.448;6.674;2023-03-03T04:05:15;9.80;45.70
33105;DHT22;19476;51.448;6.674;2023-03-03T04:07:41;9.90;45.80
33105;DHT22;19476;51.448;6.674;2023-03-03T04:10:08;9.90;45.90
33105;DHT22;19476;51.448;6.674;2023-03-03T04:12:34;9.90;45.90
33105;DHT22;19476;51.448;6.674;2023-03-03T04:15:08;9.90;45.80
33105;DHT22;19476;51.448;6.674;2023-03-03T04:17:35;9.80;45.90
33105;DHT22;19476;51.448;6.674;2023-03-03T04:20:01;9.80;45.60
33105;DHT22;19476;51.448;6.674;2023-03-03T04:22:28;9.80;45.60
33105;DHT22;19476;51.448;6.674;2023-03-03T04:24:58;9.80;45.60
33105;DHT22;19476;51.448;6.674;2023-03-03T04:27:24;9.70;45.70
33105;DHT22;19476;51.448;6.674;2023-03-03T04:29:50;9.70;45.60
33105;DHT22;19476;51.448;6.674;2023-03-03T04:32:15;9.60;45.70
33105;DHT22;19476;51.448;6.674;2023-03-03T04:34:43;9.70;45.80
33105;DHT22;19476;51.448;6.674;2023-03-03T04:37:08;9.60;45.80
33105;DHT22;19476;51.448;6.674;2023-03-03T04:39:34;9.60;45.80
33105;DHT22;19476;51.448;6.674;2023-03-03T04:42:00;9.60;45.80
33105;DHT22;19476;51.448;6.674;2023-03-03T04:44:26;9.60;45.80
33105;DHT22;19476;51.448;6.674;2023-03-03T04:46:51;9.60;45.80
33105;DHT22;19476;51.448;6.674;2023-03-03T04:49:17;9.60;45.80
33105;DHT22;19476;51.448;6.674;2023-03-03T04:51:43;9.60;45.80
33105;DHT22;19476;51.448;6.674;2023-03-03T04:54:09;9.60;45.90
33105;DHT22;19476;51.448;6.674;2023-03-03T04:56:35;9.50;45.90
33105;DHT22;19476;51.448;6.674;2023-03-03T04:59:00;9.50;45.80
33105;DHT22;19476;51.448;6.674;2023-03-03T05:01:26;9.50;45.90
33105;DHT22;19476;51.448;6.674;2023-03-03T05:03:52;9.50;45.90
33105;DHT22;19476;51.448;6.674;2023-03-03T05:06:18;9.50;46.00
33105;DHT22;19476;51.448;6.674;2023-03-03T05:08:44;9.50;46.10
33105;DHT22;19476;51.448;6.674;2023-03-03T05:11:10;9.50;46.10
33105;DHT22;19476;51.448;6.674;2023-03-03T05:13:36;9.40;45.90
33105;DHT22;19476;51.448;6.674;2023-03-03T05:16:02;9.40;46.00
33105;DHT22;19476;51.448;6.674;2023-03-03T05:18:28;9.40;46.00
33105;DHT22;19476;51.448;6.674;2023-03-03T05:20:54;9.40;46.00
33105;DHT22;19476;51.448;6.674;2023-03-03T05:23:20;9.40;46.10
33105;DHT22;19476;51.448;6.674;2023-03-03T05:25:47;9.40;46.10
33105;DHT22;19476;51.448;6.674;2023-03-03T05:28:13;9.40;46.20
33105;DHT22;19476;51.448;6.674;2023-03-03T05:30:39;9.40;46.20
33105;DHT22;19476;51.448;6.674;2023-03-03T05:33:06;9.40;46.10
33105;DHT22;19476;51.448;6.674;2023-03-03T05:35:32;9.40;46.10
33105;DHT22;19476;51.448;6.674;2023-03-03T05:37:58;9.40;46.10
33105;DHT22;19476;51.448;6.674;2023-03-03T05:40:25;9.40;46.20
33105;DHT22;19476;51.448;6.674;2023-03-03T05:42:51;9.30;46.20
33105;DHT22;19476;51.448;6.674;2023-03-03T05:45:17;9.50;46.30
33105;DHT22;19476;51.448;6.674;2023-03-03T05:47:52;9.30;46.30
33105;DHT22;19476;51.448;6.674;2023-03-03T05:50:19;9.30;46.70
33105;DHT22;19476;51.448;6.674;2023-03-03T05:52:50;9.30;46.50
33105;DHT22;19476;51.448;6.674;2023-03-03T05:55:16;9.30;46.70
33105;DHT22;19476;51.448;6.674;2023-03-03T05:57:42;9.40;46.70
33105;DHT22;19476;51.448;6.674;2023-03-03T06:00:08;9.40;46.10
33105;DHT22;19476;51.448;6.674;2023-03-03T06:02:34;9.40;46.30
33105;DHT22;19476;51.448;6.674;2023-03-03T06:05:00;9.40;46.20
33105;DHT22;19476;51.448;6.674;2023-03-03T06:07:26;9.40;46.20
33105;DHT22;19476;51.448;6.674;2023-03-03T06:09:52;9.50;46.30
33105;DHT22;19476;51.448;6.674;2023-03-03T06:12:18;9.50;46.40
33105;DHT22;19476;51.448;6.674;2023-03-03T06:14:44;9.50;46.30
33105;DHT22;19476;51.448;6.674;2023-03-03T06:17:09;9.50;46.30
33105;DHT22;19476;51.448;6.674;2023-03-03T06:19:36;9.60;46.20
33105;DHT22;19476;51.448;6.674;2023-03-03T06:22:02;9.60;46.20
33105;DHT22;19476;51.448;6.674;2023-03-03T06:24:28;9.60;46.20
33105;DHT22;19476;51.448;6.674;2023-03-03T06:26:59;9.70;46.20
33105;DHT22;19476;51.448;6.674;2023-03-03T06:29:25;9.70;46.20
33105;DHT22;19476;51.448;6.674;2023-03-03T06:31:51;9.80;46.10
33105;DHT22;19476;51.448;6.674;2023-03-03T06:34:17;9.80;45.90
33105;DHT22;19476;51.448;6.674;2023-03-03T06:36:43;9.80;45.80
33105;DHT22;19476;51.448;6.674;2023-03-03T06:39:09;9.80;45.70
33105;DHT22;19476;51.448;6.674;2023-03-03T06:41:34;9.80;45.60
33105;DHT22;19476;51.448;6.674;2023-03-03T06:44:00;9.90;45.60
33105;DHT22;19476;51.448;6.674;2023-03-03T06:46:26;9.90;45.50
33105;DHT22;19476;51.448;6.674;2023-03-03T06:48:52;9.90;45.40
33105;DHT22;19476;51.448;6.674;2023-03-03T06:51:25;9.90;45.40
33105;DHT22;19476;51.448;6.674;2023-03-03T06:53:56;9.90;45.50
33105;DHT22;19476;51.448;6.674;2023-03-03T06:56:26;9.90;45.40
33105;DHT22;19476;51.448;6.674;2023-03-03T06:58:59;9.90;45.40
33105;DHT22;19476;51.448;6.674;2023-03-03T07:01:29;9.90;45.70
33105;DHT22;19476;51.448;6.674;2023-03-03T07:03:57;10.00;45.50
33105;DHT22;19476;51.448;6.674;2023-03-03T07:06:25;10.00;45.50
33105;DHT22;19476;51.448;6.674;2023-03-03T07:08:53;10.00;45.50
33105;DHT22;19476;51.448;6.674;2023-03-03T07:11:21;10.00;45.40
33105;DHT22;19476;51.448;6.674;2023-03-03T07:13:50;10.00;45.30
33105;DHT22;19476;51.448;6.674;2023-03-03T07:16:18;10.00;45.20
33105;DHT22;19476;51.448;6.674;2023-03-03T07:21:33;10.00;45.10
33105;DHT22;19476;51.448;6.674;2023-03-03T07:24:27;10.00;45.20
33105;DHT22;19476;51.448;6.674;2023-03-03T07:27:16;10.00;45.30
33105;DHT22;19476;51.448;6.674;2023-03-03T07:29:46;10.10;45.10
33105;DHT22;19476;51.448;6.674;2023-03-03T07:32:37;10.00;45.00
33105;DHT22;19476;51.448;6.674;2023-03-03T07:38:00;10.10;45.30
33105;DHT22;19476;51.448;6.674;2023-03-03T07:40:36;10.10;44.90
33105;DHT22;19476;51.448;6.674;2023-03-03T07:45:49;10.10;45.10
33105;DHT22;19476;51.448;6.674;2023-03-03T07:48:29;10.20;44.70
33105;DHT22;19476;51.448;6.674;2023-03-03T07:50:57;10.20;45.00
33105;DHT22;19476;51.448;6.674;2023-03-03T07:53:30;10.10;44.80
33105;DHT22;19476;51.448;6.674;2023-03-03T07:55:59;10.20;44.70
33105;DHT22;19476;51.448;6.674;2023-03-03T07:58:43;10.20;44.60
33105;DHT22;19476;51.448;6.674;2023-03-03T08:03:56;10.20;44.90
33105;DHT22;19476;51.448;6.674;2023-03-03T08:09:18;10.20;44.90
33105;DHT22;19476;51.448;6.674;2023-03-03T08:11:58;10.20;44.70
33105;DHT22;19476;51.448;6.674;2023-03-03T08:14:32;10.20;44.70
33105;DHT22;19476;51.448;6.674;2023-03-03T08:16:58;10.30;44.60
33105;DHT22;19476;51.448;6.674;2023-03-03T08:19:25;10.30;44.50
33105;DHT22;19476;51.448;6.674;2023-03-03T08:21:55;10.20;44.50
33105;DHT22;19476;51.448;6.674;2023-03-03T08:24:24;9.90;44.30
33105;DHT22;19476;51.448;6.674;2023-03-03T08:26:50;10.20;44.40
33105;DHT22;19476;51.448;6.674;2023-03-03T08:29:16;10.20;44.50
33105;DHT22;19476;51.448;6.674;2023-03-03T08:31:41;10.20;44.40
33105;DHT22;19476;51.448;6.674;2023-03-03T08:34:07;10.30;44.40
33105;DHT22;19476;51.448;6.674;2023-03-03T08:36:33;10.30;44.40
33105;DHT22;19476;51.448;6.674;2023-03-03T08:38:59;10.20;44.30
33105;DHT22;19476;51.448;6.674;2023-03-03T08:41:24;10.30;44.40
33105;DHT22;19476;51.448;6.674;2023-03-03T08:43:50;10.30;44.40
33105;DHT22;19476;51.448;6.674;2023-03-03T08:46:19;10.30;44.50
33105;DHT22;19476;51.448;6.674;2023-03-03T08:48:47;10.30;44.60
33105;DHT22;19476;51.448;6.674;2023-03-03T08:51:12;10.30;44.40
33105;DHT22;19476;51.448;6.674;2023-03-03T08:53:38;10.30;44.40
33105;DHT22;19476;51.448;6.674;2023-03-03T08:56:05;10.30;44.40
33105;DHT22;19476;51.448;6.674;2023-03-03T08:58:31;10.30;44.40
33105;DHT22;19476;51.448;6.674;2023-03-03T09:00:57;10.30;44.40
33105;DHT22;19476;51.448;6.674;2023-03-03T09:03:24;10.30;44.30
33105;DHT22;19476;51.448;6.674;2023-03-03T09:05:50;10.30;44.40
33105;DHT22;19476;51.448;6.674;2023-03-03T09:08:16;10.30;44.50
33105;DHT22;19476;51.448;6.674;2023-03-03T09:10:41;10.30;44.60
33105;DHT22;19476;51.448;6.674;2023-03-03T09:13:13;10.30;44.60
33105;DHT22;19476;51.448;6.674;2023-03-03T09:15:39;10.30;44.80
33105;DHT22;19476;51.448;6.674;2023-03-03T09:20:42;10.30;44.70
33105;DHT22;19476;51.448;6.674;2023-03-03T09:23:37;10.30;44.70
33105;DHT22;19476;51.448;6.674;2023-03-03T09:29:56;10.40;45.00
33105;DHT22;19476;51.448;6.674;2023-03-03T09:32:33;10.40;45.00
33105;DHT22;19476;51.448;6.674;2023-03-03T09:37:52;10.50;44.70
33105;DHT22;19476;51.448;6.674;2023-03-03T09:45:48;10.50;44.40
33105;DHT22;19476;51.448;6.674;2023-03-03T09:54:41;10.50;44.70
33105;DHT22;19476;51.448;6.674;2023-03-03T09:57:23;10.60;44.70
33105;DHT22;19476;51.448;6.674;2023-03-03T10:11:21;10.70;44.30
33105;DHT22;19476;51.448;6.674;2023-03-03T10:16:44;10.70;44.30
33105;DHT22;19476;51.448;6.674;2023-03-03T10:27:24;10.70;44.00
33105;DHT22;19476;51.448;6.674;2023-03-03T10:32:48;10.70;44.10
33105;DHT22;19476;51.448;6.674;2023-03-03T10:52:17;10.90;43.90
33105;DHT22;19476;51.448;6.674;2023-03-03T10:57:59;10.90;44.00
33105;DHT22;19476;51.448;6.674;2023-03-03T11:06:39;11.00;43.70
33105;DHT22;19476;51.448;6.674;2023-03-03T11:09:16;11.10;43.80
33105;DHT22;19476;51.448;6.674;2023-03-03T11:14:38;11.20;43.70
33105;DHT22;19476;51.448;6.674;2023-03-03T11:17:38;11.10;43.50
33105;DHT22;19476;51.448;6.674;2023-03-03T11:25:31;11.30;43.60
33105;DHT22;19476;51.448;6.674;2023-03-03T11:28:26;11.30;43.50
33105;DHT22;19476;51.448;6.674;2023-03-03T11:37:00;11.40;43.30
33105;DHT22;19476;51.448;6.674;2023-03-03T11:39:27;11.40;43.20
33105;DHT22;19476;51.448;6.674;2023-03-03T11:42:16;11.50;43.10
33105;DHT22;19476;51.448;6.674;2023-03-03T11:47:44;11.50;43.20
33105;DHT22;19476;51.448;6.674;2023-03-03T11:50:24;11.50;43.20
33105;DHT22;19476;51.448;6.674;2023-03-03T11:55:56;11.60;42.80
33105;DHT22;19476;51.448;6.674;2023-03-03T11:58:46;11.70;42.90
33105;DHT22;19476;51.448;6.674;2023-03-03T12:06:46;11.70;42.70
33105;DHT22;19476;51.448;6.674;2023-03-03T12:09:49;11.70;42.70
33105;DHT22;19476;51.448;6.674;2023-03-03T12:12:23;11.70;42.60
33105;DHT22;19476;51.448;6.674;2023-03-03T12:15:08;11.70;42.50
33105;DHT22;19476;51.448;6.674;2023-03-03T12:17:47;11.70;42.60
33105;DHT22;19476;51.448;6.674;2023-03-03T12:23:30;11.70;42.50
33105;DHT22;19476;51.448;6.674;2023-03-03T12:26:31;11.70;42.60
33105;DHT22;19476;51.448;6.674;2023-03-03T12:34:39;11.70;42.50
33105;DHT22;19476;51.448;6.674;2023-03-03T12:40:07;11.80;42.60
33105;DHT22;19476;51.448;6.674;2023-03-03T12:56:46;12.20;42.90
33105;DHT22;19476;51.448;6.674;2023-03-03T13:02:40;12.30;42.00
33105;DHT22;19476;51.448;6.674;2023-03-03T13:31:00;13.90;40.60
33105;DHT22;19476;51.448;6.674;2023-03-03T13:52:35;14.80;38.30
33105;DHT22;19476;51.448;6.674;2023-03-03T13:56:24;14.80;38.40
33105;DHT22;19476;51.448;6.674;2023-03-03T14:24:31;16.90;36.50
33105;DHT22;19476;51.448;6.674;2023-03-03T14:27:32;17.10;36.30
33105;DHT22;19476;51.448;6.674;2023-03-03T14:29:59;17.30;35.50
33105;DHT22;19476;51.448;6.674;2023-03-03T14:32:26;17.40;35.90
33105;DHT22;19476;51.448;6.674;2023-03-03T14:35:00;17.60;35.50
33105;DHT22;19476;51.448;6.674;2023-03-03T14:37:44;17.70;34.90
33105;DHT22;19476;51.448;6.674;2023-03-03T14:40:21;17.90;34.60
33105;DHT22;19476;51.448;6.674;2023-03-03T14:42:55;18.10;34.30
33105;DHT22;19476;51.448;6.674;2023-03-03T14:45:40;18.20;34.60
33105;DHT22;19476;51.448;6.674;2023-03-03T14:48:25;18.40;34.00
33105;DHT22;19476;51.448;6.674;2023-03-03T14:51:15;18.60;33.80
33105;DHT22;19476;51.448;6.674;2023-03-03T14:54:33;18.70;33.40
33105;DHT22;19476;51.448;6.674;2023-03-03T15:06:43;18.80;32.40
33105;DHT22;19476;51.448;6.674;2023-03-03T15:19:37;18.10;33.10
33105;DHT22;19476;51.448;6.674;2023-03-03T15:22:35;18.10;33.10
33105;DHT22;19476;51.448;6.674;2023-03-03T15:25:23;18.00;33.20
33105;DHT22;19476;51.448;6.674;2023-03-03T15:28:19;17.90;32.90
33105;DHT22;19476;51.448;6.674;2023-03-03T15:37:46;17.50;33.30
33105;DHT22;19476;51.448;6.674;2023-03-03T15:40:29;17.40;33.40
33105;DHT22;19476;51.448;6.674;2023-03-03T16:04:27;15.90;35.30
33105;DHT22;19476;51.448;6.674;2023-03-03T16:07:13;15.80;35.40
33105;DHT22;19476;51.448;6.674;2023-03-03T16:10:20;15.70;35.70
33105;DHT22;19476;51.448;6.674;2023-03-03T16:21:22;15.20;36.50
33105;DHT22;19476;51.448;6.674;2023-03-03T16:24:05;15.10;36.60
33105;DHT22;19476;51.448;6.674;2023-03-03T16:26:46;15.10;36.70
33105;DHT22;19476;51.448;6.674;2023-03-03T16:34:55;14.90;37.10
33105;DHT22;19476;51.448;6.674;2023-03-03T16:40:25;14.70;37.20
33105;DHT22;19476;51.448;6.674;2023-03-03T16:43:17;14.60;37.70
33105;DHT22;19476;51.448;6.674;2023-03-03T16:45:46;14.50;37.90
33105;DHT22;19476;51.448;6.674;2023-03-03T16:51:05;14.40;38.20
33105;DHT22;19476;51.448;6.674;2023-03-03T16:56:31;14.30;38.20
33105;DHT22;19476;51.448;6.674;2023-03-03T16:59:20;14.20;38.50
33105;DHT22;19476;51.448;6.674;2023-03-03T17:10:51;14.00;39.00
33105;DHT22;19476;51.448;6.674;2023-03-03T17:16:17;13.90;39.10
33105;DHT22;19476;51.448;6.674;2023-03-03T17:18:58;13.80;39.40
33105;DHT22;19476;51.448;6.674;2023-03-03T17:24:49;14.00;39.70
33105;DHT22;19476;51.448;6.674;2023-03-03T17:27:50;13.70;39.70
33105;DHT22;19476;51.448;6.674;2023-03-03T17:30:47;13.70;39.80
33105;DHT22;19476;51.448;6.674;2023-03-03T17:44:48;13.60;39.80
33105;DHT22;19476;51.448;6.674;2023-03-03T17:47:29;13.60;40.00
33105;DHT22;19476;51.448;6.674;2023-03-03T17:50:13;13.60;40.00
33105;DHT22;19476;51.448;6.674;2023-03-03T18:06:03;13.60;39.80
33105;DHT22;19476;51.448;6.674;2023-03-03T18:14:37;13.50;40.30
33105;DHT22;19476;51.448;6.674;2023-03-03T18:22:44;13.50;40.40
33105;DHT22;19476;51.448;6.674;2023-03-03T18:25:16;13.50;40.60
33105;DHT22;19476;51.448;6.674;2023-03-03T18:27:44;13.50;41.10
33105;DHT22;19476;51.448;6.674;2023-03-03T18:30:28;13.40;40.40
33105;DHT22;19476;51.448;6.674;2023-03-03T18:52:27;13.50;41.10
33105;DHT22;19476;51.448;6.674;2023-03-03T19:13:51;13.60;40.90
33105;DHT22;19476;51.448;6.674;2023-03-03T19:30:44;13.60;40.80
33105;DHT22;19476;51.448;6.674;2023-03-03T19:43:34;13.70;40.70
33105;DHT22;19476;51.448;6.674;2023-03-03T20:05:42;13.80;40.30
33105;DHT22;19476;51.448;6.674;2023-03-03T20:16:40;13.90;40.20
33105;DHT22;19476;51.448;6.674;2023-03-03T20:22:11;13.90;40.20
33105;DHT22;19476;51.448;6.674;2023-03-03T21:02:34;13.70;39.20
33105;DHT22;19476;51.448;6.674;2023-03-03T21:08:55;13.60;39.20
33105;DHT22;19476;51.448;6.674;2023-03-03T21:15:02;13.60;39.40
33105;DHT22;19476;51.448;6.674;2023-03-03T21:24:12;13.50;39.30
33105;DHT22;19476;51.448;6.674;2023-03-03T21:36:21;13.20;39.00
33105;DHT22;19476;51.448;6.674;2023-03-03T21:38:52;13.20;39.10
33105;DHT22;19476;51.448;6.674;2023-03-03T21:51:27;13.10;39.30
33105;DHT22;19476;51.448;6.674;2023-03-03T21:57:15;12.90;39.30
33105;DHT22;19476;51.448;6.674;2023-03-03T22:03:03;12.90;39.50
33105;DHT22;19476;51.448;6.674;2023-03-03T22:05:28;12.80;39.30
33105;DHT22;19476;51.448;6.674;2023-03-03T22:07:54;12.80;39.40
33105;DHT22;19476;51.448;6.674;2023-03-03T22:13:42;12.80;39.80
33105;DHT22;19476;51.448;6.674;2023-03-03T22:19:39;12.80;39.70
33105;DHT22;19476;51.448;6.674;2023-03-03T22:25:30;12.80;39.80
33105;DHT22;19476;51.448;6.674;2023-03-03T22:31:28;12.80;39.80
33105;DHT22;19476;51.448;6.674;2023-03-03T22:33:53;12.80;39.60
33105;DHT22;19476;51.448;6.674;2023-03-03T22:36:47;12.80;39.60
33105;DHT22;19476;51.448;6.674;2023-03-03T22:39:13;12.80;39.80
33105;DHT22;19476;51.448;6.674;2023-03-03T22:44:54;12.70;39.90
33105;DHT22;19476;51.448;6.674;2023-03-03T22:47:48;12.80;39.80
33105;DHT22;19476;51.448;6.674;2023-03-03T22:50:14;12.80;40.00
33105;DHT22;19476;51.448;6.674;2023-03-03T22:53:09;12.80;39.80
33105;DHT22;19476;51.448;6.674;2023-03-03T22:59:05;12.80;40.10
33105;DHT22;19476;51.448;6.674;2023-03-03T23:01:31;12.70;40.10
33105;DHT22;19476;51.448;6.674;2023-03-03T23:10:44;12.70;40.40
33105;DHT22;19476;51.448;6.674;2023-03-03T23:13:10;12.70;40.20
33105;DHT22;19476;51.448;6.674;2023-03-03T23:22:17;12.70;40.50
33105;DHT22;19476;51.448;6.674;2023-03-03T23:24:43;12.70;40.60
33105;DHT22;19476;51.448;6.674;2023-03-03T23:33:40;12.80;40.70
33105;DHT22;19476;51.448;6.674;2023-03-03T23:36:06;12.80;40.40
33105;DHT22;19476;51.448;6.674;2023-03-03T23:38:32;12.80;40.40
33105;DHT22;19476;51.448;6.674;2023-03-03T23:40:58;12.80;40.40
33105;DHT22;19476;51.448;6.674;2023-03-03T23:46:46;12.80;40.70
33105;DHT22;19476;51.448;6.674;2023-03-03T23:52:33;12.70;40.90
33105;DHT22;19476;51.448;6.674;2023-03-03T23:58:22;12.60;41.00
